Time;durP1;ratioP1;P1;durP2;ratioP2;P2;SDS_P1;SDS_P2;PMS_P1;PMS_P2;Temp;Humidity;BMP_temperature;BMP_pressure;BME280_temperature;BME280_humidity;BME280_pressure;Samples;Min_cycle;Max_cycle;Signal;HPM_P1;HPM_P2
2023/02/16 00:00:29;;;;;;;13.20;5.85;;;6.50;83.10;;;;;;5022662;28;20029;-79
2023/02/16 00:02:55;;;;;;;11.63;4.75;;;6.70;82.80;;;;;;5019371;28;20056;-79
2023/02/16 00:05:32;;;;;;;17.27;9.30;;;6.90;82.40;;;;;;5025987;28;20471;-79
2023/02/16 00:07:59;;;;;;;11.52;5.43;;;7.10;81.80;;;;;;5027120;28;20029;-79
2023/02/16 00:10:28;;;;;;;14.13;5.45;;;7.00;81.80;;;;;;5026158;28;20082;-79
2023/02/16 00:15:39;;;;;;;12.67;5.03;;;7.00;81.80;;;;;;5027950;28;20091;-78
2023/02/16 00:18:18;;;;;;;12.57;6.03;;;6.90;82.00;;;;;;5027329;28;21121;-78
2023/02/16 00:20:45;;;;;;;9.57;4.18;;;6.80;82.30;;;;;;5015680;28;20080;-78
2023/02/16 00:23:11;;;;;;;12.32;4.20;;;6.70;82.30;;;;;;5025266;28;20037;-78
2023/02/16 00:25:36;;;;;;;10.23;4.82;;;6.70;82.30;;;;;;5019693;28;20030;-78
2023/02/16 00:28:06;;;;;;;12.68;4.25;;;6.80;82.00;;;;;;5029999;28;20022;-78
2023/02/16 00:30:31;;;;;;;9.38;4.53;;;6.90;81.90;;;;;;5020744;28;20033;-78
2023/02/16 00:32:57;;;;;;;13.43;3.88;;;7.20;81.00;;;;;;5030635;28;20026;-78
2023/02/16 00:35:23;;;;;;;11.07;4.43;;;7.40;80.50;;;;;;5026467;28;20053;-78
2023/02/16 00:37:48;;;;;;;7.95;4.38;;;7.50;80.30;;;;;;5029518;28;20077;-77
2023/02/16 00:40:16;;;;;;;10.23;4.25;;;7.50;79.90;;;;;;5020588;28;20026;-78
2023/02/16 00:42:46;;;;;;;11.85;4.63;;;7.60;80.20;;;;;;5028701;28;20522;-78
2023/02/16 00:45:21;;;;;;;9.35;3.60;;;7.40;80.30;;;;;;5026948;28;20029;-78
2023/02/16 00:47:49;;;;;;;12.18;4.68;;;7.10;81.00;;;;;;5020026;28;20026;-78
2023/02/16 00:50:27;;;;;;;8.23;3.97;;;7.00;81.50;;;;;;5021331;28;20041;-77
2023/02/16 00:52:53;;;;;;;8.70;3.92;;;6.90;81.30;;;;;;5029822;28;20021;-77
2023/02/16 00:55:21;;;;;;;10.23;4.18;;;7.10;81.00;;;;;;5024069;28;20575;-78
2023/02/16 00:57:51;;;;;;;10.55;4.10;;;7.10;80.90;;;;;;5034759;28;20430;-78
2023/02/16 01:00:43;;;;;;;8.27;3.75;;;6.80;81.50;;;;;;5026720;28;20051;-78
2023/02/16 01:03:14;;;;;;;10.77;4.50;;;6.80;81.40;;;;;;5023790;28;20037;-78
2023/02/16 01:05:40;;;;;;;12.07;5.10;;;7.10;80.80;;;;;;5022651;28;20041;-77
2023/02/16 01:11:08;;;;;;;8.77;4.13;;;7.10;80.70;;;;;;5028698;28;20035;-78
2023/02/16 01:13:42;;;;;;;8.00;3.70;;;7.10;80.90;;;;;;5022148;28;20064;-78
2023/02/16 01:16:15;;;;;;;9.55;4.07;;;6.80;81.40;;;;;;5029081;28;20117;-78
2023/02/16 01:18:41;;;;;;;6.63;3.60;;;6.90;81.30;;;;;;5030341;28;20041;-78
2023/02/16 01:21:07;;;;;;;8.35;3.42;;;6.80;81.30;;;;;;5026544;28;20026;-78
2023/02/16 01:23:32;;;;;;;7.70;3.25;;;6.60;81.70;;;;;;5029779;28;20045;-77
2023/02/16 01:25:58;;;;;;;7.97;3.65;;;6.60;81.90;;;;;;5031167;28;20026;-78
2023/02/16 01:28:25;;;;;;;7.95;3.35;;;6.70;81.50;;;;;;5023557;28;20034;-78
2023/02/16 01:30:52;;;;;;;9.77;4.25;;;6.40;82.10;;;;;;5026528;28;20041;-78
2023/02/16 01:33:18;;;;;;;7.65;3.72;;;6.10;83.10;;;;;;5030646;28;20033;-76
2023/02/16 01:35:44;;;;;;;7.53;3.53;;;6.40;82.50;;;;;;5021386;28;20102;-78
2023/02/16 01:38:25;;;;;;;7.75;3.45;;;6.60;82.10;;;;;;5027552;28;20053;-78
2023/02/16 01:40:54;;;;;;;7.75;3.75;;;6.60;81.80;;;;;;5025258;28;20034;-78
2023/02/16 01:43:25;;;;;;;8.45;3.10;;;6.70;81.30;;;;;;5021249;28;20102;-78
2023/02/16 01:45:56;;;;;;;7.57;3.72;;;6.70;81.30;;;;;;5018283;28;20033;-78
2023/02/16 01:48:27;;;;;;;7.60;3.55;;;6.60;81.60;;;;;;5026821;28;20076;-78
2023/02/16 01:51:11;;;;;;;6.90;2.88;;;6.60;81.90;;;;;;5027547;28;20079;-78
2023/02/16 01:54:08;;;;;;;7.53;3.80;;;6.60;81.60;;;;;;5029123;28;20072;-77
2023/02/16 01:56:59;;;;;;;6.50;2.97;;;6.60;81.70;;;;;;5027162;28;20044;-78
2023/02/16 02:00:03;;;;;;;7.97;3.10;;;6.50;81.90;;;;;;5027373;28;20044;-79
2023/02/16 02:02:35;;;;;;;7.32;3.10;;;6.30;81.90;;;;;;5017527;28;20037;-78
2023/02/16 02:05:36;;;;;;;7.55;3.25;;;6.30;82.70;;;;;;5024569;28;20026;-78
2023/02/16 02:08:23;;;;;;;8.23;3.33;;;6.20;82.60;;;;;;5030048;28;20030;-78
2023/02/16 02:11:17;;;;;;;8.48;3.40;;;6.00;83.00;;;;;;5025708;28;20044;-78
2023/02/16 02:14:24;;;;;;;7.50;3.33;;;6.10;82.70;;;;;;5025535;28;20215;-78
2023/02/16 02:16:56;;;;;;;6.07;3.08;;;6.10;82.40;;;;;;5029135;28;20397;-79
2023/02/16 02:19:22;;;;;;;5.45;2.90;;;6.10;82.50;;;;;;5026839;28;20091;-78
2023/02/16 02:25:18;;;;;;;5.85;2.35;;;5.90;83.10;;;;;;5023971;28;20563;-77
2023/02/16 02:27:53;;;;;;;6.50;2.92;;;6.00;82.70;;;;;;5020662;28;20026;-77
2023/02/16 02:30:44;;;;;;;6.57;3.25;;;6.20;82.20;;;;;;5018487;28;20025;-78
2023/02/16 02:33:15;;;;;;;5.45;2.58;;;6.00;82.60;;;;;;5017145;28;20053;-78
2023/02/16 02:35:44;;;;;;;6.30;2.55;;;6.00;82.40;;;;;;5025636;28;20037;-78
2023/02/16 02:38:44;;;;;;;8.75;3.00;;;6.00;82.50;;;;;;5018369;28;20049;-78
2023/02/16 02:41:19;;;;;;;5.88;2.35;;;6.00;82.10;;;;;;5025153;28;20037;-78
2023/02/16 02:44:04;;;;;;;6.18;2.70;;;6.00;82.40;;;;;;5028115;28;20044;-78
2023/02/16 02:46:32;;;;;;;6.07;3.15;;;5.90;82.90;;;;;;5015055;28;20025;-78
2023/02/16 02:48:58;;;;;;;5.88;2.83;;;5.80;82.90;;;;;;5023304;28;20033;-78
2023/02/16 02:51:27;;;;;;;6.38;2.70;;;5.60;83.20;;;;;;5014287;28;20117;-79
2023/02/16 03:02:22;;;;;;;7.40;2.78;;;5.80;82.80;;;;;;5018065;28;20403;-76
2023/02/16 03:04:49;;;;;;;4.53;2.10;;;5.80;83.10;;;;;;5024225;28;20419;-76
2023/02/16 03:07:15;;;;;;;5.28;2.13;;;5.80;83.00;;;;;;5016040;28;20030;-76
2023/02/16 03:09:41;;;;;;;5.82;2.13;;;5.70;83.50;;;;;;5020952;28;20438;-76
2023/02/16 03:14:57;;;;;;;6.47;2.90;;;5.90;82.20;;;;;;5026972;28;20075;-76
2023/02/16 03:31:24;;;;;;;7.18;2.08;;;5.90;82.00;;;;;;5023752;28;20565;-77
2023/02/16 03:33:53;;;;;;;8.60;2.30;;;5.60;82.70;;;;;;5017142;28;20025;-76
2023/02/16 03:36:23;;;;;;;5.53;2.42;;;5.60;83.00;;;;;;5024278;28;20502;-75
2023/02/16 03:38:49;;;;;;;7.90;3.40;;;5.70;82.70;;;;;;5023156;28;20484;-77
2023/02/16 03:41:15;;;;;;;5.57;2.75;;;5.70;82.70;;;;;;5020959;28;20449;-76
2023/02/16 03:43:40;;;;;;;4.78;2.38;;;5.60;83.00;;;;;;5015154;28;20088;-75
2023/02/16 03:46:06;;;;;;;6.03;2.47;;;5.70;82.70;;;;;;5024027;28;20112;-77
2023/02/16 03:48:32;;;;;;;5.40;2.33;;;5.80;82.50;;;;;;5025454;28;20072;-76
2023/02/16 03:50:57;;;;;;;5.13;2.30;;;5.90;82.70;;;;;;5021515;28;20027;-76
2023/02/16 03:53:23;;;;;;;6.32;2.25;;;5.80;82.50;;;;;;5018984;28;20089;-76
2023/02/16 03:55:48;;;;;;;5.18;2.08;;;5.40;83.40;;;;;;5025355;28;20038;-76
2023/02/16 03:58:21;;;;;;;6.40;3.10;;;5.40;83.80;;;;;;5021870;28;20483;-76
2023/02/16 04:00:47;;;;;;;7.05;2.35;;;5.50;83.20;;;;;;5020288;28;20041;-77
2023/02/16 04:03:13;;;;;;;4.93;2.17;;;5.60;83.20;;;;;;5018937;28;20091;-77
2023/02/16 04:05:39;;;;;;;5.07;2.28;;;5.60;83.30;;;;;;5023658;28;20112;-77
2023/02/16 04:08:05;;;;;;;5.60;2.50;;;5.50;84.10;;;;;;5016488;28;20041;-77
2023/02/16 04:10:31;;;;;;;4.80;1.88;;;5.30;84.00;;;;;;5015207;28;20167;-76
2023/02/16 04:12:56;;;;;;;5.13;2.03;;;5.40;83.50;;;;;;5022633;28;20029;-77
2023/02/16 04:15:25;;;;;;;4.80;2.40;;;5.50;83.20;;;;;;5016598;28;20415;-77
2023/02/16 04:17:50;;;;;;;3.80;1.88;;;5.50;83.00;;;;;;5018530;28;20046;-77
2023/02/16 04:20:19;;;;;;;5.40;2.30;;;5.40;83.30;;;;;;5014012;28;20029;-77
2023/02/16 04:22:45;;;;;;;5.18;2.10;;;5.40;83.50;;;;;;5018660;28;20491;-76
2023/02/16 04:25:10;;;;;;;4.25;2.33;;;5.40;83.30;;;;;;5016593;28;20060;-77
2023/02/16 04:27:37;;;;;;;4.22;2.00;;;5.40;83.30;;;;;;5023101;28;20078;-77
2023/02/16 04:30:04;;;;;;;6.22;2.05;;;5.50;83.00;;;;;;5022577;28;20022;-77
2023/02/16 04:32:30;;;;;;;4.93;2.15;;;5.40;83.60;;;;;;5015094;28;20029;-77
2023/02/16 04:34:56;;;;;;;4.90;1.75;;;5.30;83.60;;;;;;5016790;28;20121;-76
2023/02/16 04:37:22;;;;;;;5.97;2.00;;;5.40;83.50;;;;;;5026353;28;20101;-76
2023/02/16 04:39:47;;;;;;;6.18;2.72;;;5.20;83.80;;;;;;5025018;28;20026;-77
2023/02/16 04:42:13;;;;;;;7.78;2.42;;;5.20;84.30;;;;;;5021661;28;20056;-75
2023/02/16 04:44:38;;;;;;;3.85;1.80;;;5.20;84.10;;;;;;5021170;28;20037;-77
2023/02/16 04:47:04;;;;;;;5.32;2.33;;;5.30;83.80;;;;;;5027035;28;20037;-77
2023/02/16 04:49:30;;;;;;;4.88;1.80;;;5.60;82.70;;;;;;5024447;28;20025;-77
2023/02/16 04:51:56;;;;;;;5.30;2.05;;;5.70;82.70;;;;;;5019526;28;20112;-77
2023/02/16 04:54:21;;;;;;;5.60;2.50;;;5.60;82.70;;;;;;5026767;28;20549;-77
2023/02/16 04:56:47;;;;;;;5.30;2.70;;;5.40;83.40;;;;;;5022403;28;20108;-77
2023/02/16 04:59:14;;;;;;;5.22;2.00;;;5.60;82.70;;;;;;5025797;28;20124;-77
2023/02/16 05:01:40;;;;;;;5.53;2.55;;;5.50;83.40;;;;;;5013808;28;20030;-77
2023/02/16 05:04:08;;;;;;;4.25;1.83;;;5.30;83.70;;;;;;5019158;28;20033;-77
2023/02/16 05:06:34;;;;;;;4.28;1.83;;;5.30;83.50;;;;;;5019641;28;20041;-77
2023/02/16 05:09:00;;;;;;;5.90;2.00;;;5.40;83.50;;;;;;5025092;28;20095;-77
2023/02/16 05:14:40;;;;;;;7.95;2.72;;;5.10;84.20;;;;;;5024062;28;20041;-77
2023/02/16 05:17:07;;;;;;;6.18;2.38;;;5.10;84.10;;;;;;5021702;28;20708;-79
2023/02/16 05:19:33;;;;;;;5.68;1.75;;;5.20;84.10;;;;;;5017749;28;20605;-79
2023/02/16 05:21:59;;;;;;;4.03;1.50;;;5.20;83.90;;;;;;5016081;28;20057;-77
2023/02/16 05:24:24;;;;;;;5.88;2.50;;;5.20;83.50;;;;;;5020944;28;20036;-79
2023/02/16 05:26:50;;;;;;;7.00;1.77;;;5.20;83.70;;;;;;5023519;28;20044;-79
2023/02/16 05:29:15;;;;;;;4.95;2.03;;;5.20;83.60;;;;;;5021785;28;20865;-79
2023/02/16 05:31:41;;;;;;;6.20;1.77;;;5.20;83.30;;;;;;5016002;28;20026;-79
2023/02/16 05:34:07;;;;;;;6.05;1.58;;;5.30;83.60;;;;;;5013988;28;20349;-79
2023/02/16 05:36:32;;;;;;;10.77;1.98;;;5.10;84.30;;;;;;5023523;28;20034;-79
2023/02/16 05:38:58;;;;;;;4.93;2.33;;;5.00;84.30;;;;;;5021959;28;20388;-79
2023/02/16 05:41:24;;;;;;;3.88;1.50;;;4.80;84.50;;;;;;5018737;28;20482;-79
2023/02/16 05:43:58;;;;;;;8.65;1.88;;;4.90;84.70;;;;;;5017240;28;20517;-79
2023/02/16 05:46:26;;;;;;;6.47;2.15;;;4.70;85.60;;;;;;5017930;28;20032;-79
2023/02/16 05:48:52;;;;;;;6.18;1.88;;;4.60;85.80;;;;;;5016866;28;20030;-79
2023/02/16 05:51:18;;;;;;;7.28;2.35;;;4.70;85.80;;;;;;5017576;28;20036;-79
2023/02/16 05:53:44;;;;;;;5.82;2.22;;;4.50;87.10;;;;;;5017031;28;20065;-79
2023/02/16 05:56:10;;;;;;;5.10;2.03;;;4.30;87.10;;;;;;5022020;28;20057;-79
2023/02/16 05:58:36;;;;;;;6.35;1.73;;;4.50;86.00;;;;;;5017219;28;20042;-79
2023/02/16 06:01:01;;;;;;;5.53;2.33;;;4.60;85.60;;;;;;5016882;28;20037;-79
2023/02/16 06:03:27;;;;;;;3.92;1.80;;;4.60;85.40;;;;;;5012607;28;20056;-79
2023/02/16 06:05:54;;;;;;;4.25;2.03;;;4.50;86.10;;;;;;5012057;28;20037;-79
2023/02/16 06:08:20;;;;;;;5.40;1.92;;;4.60;85.30;;;;;;5020520;28;20087;-79
2023/02/16 06:10:48;;;;;;;3.92;1.65;;;4.60;85.50;;;;;;5020239;28;20045;-79
2023/02/16 06:13:14;;;;;;;4.28;2.10;;;4.50;85.80;;;;;;5016011;28;20472;-79
2023/02/16 06:15:40;;;;;;;5.43;2.17;;;4.50;85.70;;;;;;5023879;28;20086;-77
2023/02/16 06:18:05;;;;;;;5.47;2.35;;;4.40;85.70;;;;;;5008499;28;20156;-79
2023/02/16 06:20:31;;;;;;;6.15;2.13;;;4.50;85.80;;;;;;5017579;28;20038;-79
2023/02/16 06:22:57;;;;;;;5.35;2.38;;;4.50;85.60;;;;;;5014578;28;20037;-79
2023/02/16 06:25:22;;;;;;;4.47;2.30;;;4.60;85.40;;;;;;5021009;28;20072;-78
2023/02/16 06:27:49;;;;;;;6.35;2.78;;;4.60;85.50;;;;;;5011994;28;20049;-79
2023/02/16 06:30:15;;;;;;;6.38;3.03;;;4.60;85.80;;;;;;5023478;28;20040;-75
2023/02/16 06:32:40;;;;;;;6.65;2.38;;;4.50;86.40;;;;;;5015669;28;20025;-76
2023/02/16 06:35:06;;;;;;;5.07;1.85;;;4.50;86.00;;;;;;5013371;28;20044;-79
2023/02/16 06:37:33;;;;;;;4.88;2.08;;;4.60;85.60;;;;;;5018439;28;20061;-78
2023/02/16 06:39:58;;;;;;;6.00;2.20;;;4.60;85.70;;;;;;5013602;28;20025;-77
2023/02/16 06:42:24;;;;;;;6.57;2.70;;;4.60;86.80;;;;;;5019021;28;20040;-79
2023/02/16 06:44:51;;;;;;;5.95;2.53;;;4.50;87.30;;;;;;5023913;28;20050;-77
2023/02/16 06:47:16;;;;;;;6.93;2.10;;;4.50;86.70;;;;;;5010812;28;20472;-78
2023/02/16 06:49:42;;;;;;;9.85;2.45;;;4.50;86.50;;;;;;5011250;28;20033;-77
2023/02/16 06:52:07;;;;;;;4.22;1.90;;;4.50;86.70;;;;;;5018120;28;20029;-78
2023/02/16 06:54:33;;;;;;;6.85;2.58;;;4.30;87.60;;;;;;5014397;28;20033;-79
2023/02/16 06:56:59;;;;;;;4.82;1.80;;;4.40;87.20;;;;;;5021092;28;20026;-79
2023/02/16 06:59:24;;;;;;;5.70;2.10;;;4.30;87.50;;;;;;5020820;28;20033;-78
2023/02/16 07:01:50;;;;;;;4.95;2.00;;;4.50;86.90;;;;;;5010258;28;20108;-78
2023/02/16 07:04:15;;;;;;;6.07;2.00;;;4.80;86.00;;;;;;5018568;28;20436;-77
2023/02/16 07:06:41;;;;;;;4.18;2.08;;;5.00;85.50;;;;;;5021776;28;20032;-79
2023/02/16 07:09:07;;;;;;;6.68;2.60;;;5.20;84.60;;;;;;5017390;28;20057;-78
2023/02/16 07:11:32;;;;;;;6.28;2.55;;;5.30;84.50;;;;;;5015786;28;20033;-78
2023/02/16 07:13:58;;;;;;;4.60;1.73;;;5.30;85.50;;;;;;5019326;28;20036;-78
2023/02/16 07:16:24;;;;;;;5.50;1.88;;;5.20;85.10;;;;;;5020928;28;20033;-78
2023/02/16 07:18:50;;;;;;;4.10;1.55;;;5.20;85.40;;;;;;5016659;28;20022;-78
2023/02/16 07:21:16;;;;;;;4.85;2.10;;;5.30;85.20;;;;;;5013699;28;20456;-77
2023/02/16 07:23:42;;;;;;;6.35;2.95;;;5.40;86.50;;;;;;5013261;28;20044;-78
2023/02/16 07:26:07;;;;;;;5.35;2.55;;;5.50;87.10;;;;;;5011427;28;20387;-76
2023/02/16 07:28:33;;;;;;;10.00;2.28;;;5.40;86.90;;;;;;5013117;28;20135;-76
2023/02/16 07:31:06;;;;;;;8.73;2.33;;;5.50;87.60;;;;;;5018629;28;20029;-76
2023/02/16 07:33:31;;;;;;;3.80;1.80;;;5.60;87.60;;;;;;5020084;28;20045;-76
2023/02/16 07:35:57;;;;;;;4.40;1.67;;;5.70;87.80;;;;;;5017903;28;20033;-76
2023/02/16 07:38:23;;;;;;;5.05;2.00;;;5.70;88.50;;;;;;5014466;28;20480;-76
2023/02/16 07:40:48;;;;;;;4.25;1.90;;;5.70;86.90;;;;;;5013778;28;20041;-76
2023/02/16 07:43:14;;;;;;;7.78;2.88;;;5.70;87.30;;;;;;5012864;28;20030;-75
2023/02/16 07:45:41;;;;;;;5.75;1.85;;;5.70;86.80;;;;;;5019575;28;20030;-76
2023/02/16 07:48:06;;;;;;;4.60;2.15;;;5.80;86.20;;;;;;5017431;28;20168;-76
2023/02/16 07:50:32;;;;;;;5.38;2.10;;;5.90;86.80;;;;;;5018712;28;20489;-76
2023/02/16 07:53:01;;;;;;;5.68;2.80;;;5.90;87.60;;;;;;5020377;28;20041;-76
2023/02/16 07:55:27;;;;;;;7.32;2.72;;;5.90;88.30;;;;;;5011380;28;20496;-74
2023/02/16 07:58:03;;;;;;;6.90;3.58;;;5.70;88.50;;;;;;5015285;28;20104;-76
2023/02/16 08:00:29;;;;;;;5.93;2.72;;;5.50;87.30;;;;;;5019235;28;20032;-76
2023/02/16 08:02:54;;;;;;;6.22;2.40;;;5.60;87.50;;;;;;5019636;28;20034;-76
2023/02/16 08:05:20;;;;;;;6.25;2.90;;;5.70;88.00;;;;;;5017892;28;20025;-76
2023/02/16 08:07:46;;;;;;;5.60;3.10;;;5.80;87.60;;;;;;5021171;28;20037;-75
2023/02/16 08:10:12;;;;;;;7.03;3.03;;;5.80;86.40;;;;;;5017530;28;20057;-76
2023/02/16 08:12:38;;;;;;;7.22;2.95;;;5.90;87.00;;;;;;5016622;28;20061;-75
2023/02/16 08:15:03;;;;;;;6.68;3.33;;;5.90;86.80;;;;;;5019295;28;20029;-75
2023/02/16 08:17:29;;;;;;;9.77;3.70;;;5.90;87.90;;;;;;5019106;28;20026;-75
2023/02/16 08:19:55;;;;;;;8.07;3.20;;;6.20;88.50;;;;;;5021965;28;20666;-76
2023/02/16 08:22:20;;;;;;;10.00;3.92;;;6.30;87.30;;;;;;5018938;28;20038;-75
2023/02/16 08:24:46;;;;;;;15.40;4.32;;;6.30;86.60;;;;;;5017094;28;20486;-75
2023/02/16 08:27:12;;;;;;;6.88;2.70;;;6.40;86.80;;;;;;5022817;28;20124;-75
2023/02/16 08:29:37;;;;;;;7.78;4.47;;;6.50;86.10;;;;;;5022870;28;20082;-75
2023/02/16 08:32:06;;;;;;;13.18;5.80;;;6.50;87.20;;;;;;5023900;28;20098;-75
2023/02/16 08:34:33;;;;;;;17.95;7.60;;;6.40;87.80;;;;;;5024295;28;20075;-76
2023/02/16 08:36:59;;;;;;;10.95;5.25;;;6.40;88.10;;;;;;5024579;28;20348;-75
2023/02/16 08:39:27;;;;;;;10.98;3.90;;;6.50;87.80;;;;;;5025899;28;20037;-75
2023/02/16 08:41:54;;;;;;;6.80;3.35;;;6.50;87.00;;;;;;5026001;28;20033;-75
2023/02/16 08:44:22;;;;;;;9.73;3.97;;;6.50;87.30;;;;;;5026083;28;20384;-75
2023/02/16 08:46:49;;;;;;;6.68;3.83;;;6.30;88.00;;;;;;5020199;28;20049;-75
2023/02/16 08:49:17;;;;;;;9.48;4.15;;;6.40;88.10;;;;;;5024954;28;20029;-75
2023/02/16 08:51:47;;;;;;;7.20;3.40;;;6.30;88.40;;;;;;5027390;28;20057;-75
2023/02/16 08:54:26;;;;;;;18.20;3.42;;;6.40;87.80;;;;;;5026502;28;20104;-75
2023/02/16 08:56:53;;;;;;;5.68;2.90;;;6.50;86.90;;;;;;5019588;28;20111;-75
2023/02/16 08:59:20;;;;;;;9.40;3.47;;;6.60;86.10;;;;;;5020387;28;20080;-75
2023/02/16 09:01:47;;;;;;;7.22;2.97;;;6.60;86.50;;;;;;5022100;28;20064;-76
2023/02/16 09:04:14;;;;;;;7.60;3.45;;;6.70;84.80;;;;;;5021226;28;20037;-76
2023/02/16 09:06:41;;;;;;;9.98;3.65;;;6.80;85.10;;;;;;5025516;28;20056;-75
2023/02/16 09:09:08;;;;;;;6.75;3.15;;;6.80;85.20;;;;;;5021400;28;20040;-76
2023/02/16 09:11:35;;;;;;;6.70;3.33;;;6.80;85.20;;;;;;5024767;28;20041;-75
2023/02/16 09:14:01;;;;;;;9.35;4.25;;;7.00;84.80;;;;;;5019560;28;20044;-75
2023/02/16 09:16:28;;;;;;;7.85;3.00;;;7.00;85.40;;;;;;5019651;28;20112;-76
2023/02/16 09:18:56;;;;;;;7.45;3.50;;;7.10;85.90;;;;;;5022084;28;20087;-75
2023/02/16 09:21:24;;;;;;;7.15;2.47;;;7.20;85.80;;;;;;5024395;28;20032;-75
2023/02/16 09:23:53;;;;;;;8.00;3.85;;;7.30;85.10;;;;;;5025747;28;20038;-75
2023/02/16 09:26:20;;;;;;;6.70;3.65;;;7.30;86.30;;;;;;5022376;28;20099;-75
2023/02/16 09:28:47;;;;;;;11.35;7.18;;;7.30;86.80;;;;;;5022854;28;20083;-76
2023/02/16 09:31:25;;;;;;;7.75;4.15;;;7.30;85.50;;;;;;5025649;28;20090;-76
2023/02/16 09:33:53;;;;;;;11.27;3.90;;;7.30;85.50;;;;;;5016175;28;20084;-76
2023/02/16 09:36:19;;;;;;;9.68;4.28;;;7.40;85.50;;;;;;5018355;28;20555;-76
2023/02/16 09:38:47;;;;;;;15.55;4.32;;;7.30;86.90;;;;;;5025805;28;20053;-76
2023/02/16 09:41:37;;;;;;;10.25;3.10;;;7.30;86.00;;;;;;5023414;28;20032;-76
2023/02/16 09:44:27;;;;;;;6.32;3.08;;;7.40;84.70;;;;;;5020938;28;20034;-75
2023/02/16 09:46:56;;;;;;;7.43;3.78;;;7.30;84.00;;;;;;5019784;28;20036;-75
2023/02/16 09:49:28;;;;;;;7.45;3.15;;;7.40;84.00;;;;;;5023339;28;20087;-75
2023/02/16 09:52:04;;;;;;;10.40;3.35;;;7.60;84.20;;;;;;5017594;28;20026;-75
2023/02/16 09:54:35;;;;;;;6.32;3.00;;;7.80;83.00;;;;;;5024428;28;20123;-76
2023/02/16 09:57:18;;;;;;;6.68;3.13;;;7.90;83.30;;;;;;5020207;28;20083;-76
2023/02/16 09:59:52;;;;;;;7.10;2.78;;;8.00;81.90;;;;;;5017371;28;20033;-76
2023/02/16 10:02:38;;;;;;;4.45;2.33;;;8.00;82.10;;;;;;5012886;28;20667;-76
2023/02/16 10:05:17;;;;;;;6.47;2.42;;;8.10;81.60;;;;;;5020335;28;20057;-75
2023/02/16 10:08:06;;;;;;;6.43;2.25;;;8.10;81.40;;;;;;5015769;28;20483;-76
2023/02/16 10:10:52;;;;;;;5.63;2.65;;;8.20;80.40;;;;;;5014621;28;20041;-75
2023/02/16 10:13:52;;;;;;;7.00;2.60;;;8.20;80.50;;;;;;5024534;28;20037;-76
2023/02/16 10:16:25;;;;;;;9.27;3.10;;;8.20;80.60;;;;;;5022027;28;20546;-76
2023/02/16 10:18:53;;;;;;;7.07;2.53;;;8.30;80.70;;;;;;5025028;28;20025;-75
2023/02/16 10:21:24;;;;;;;8.13;3.13;;;8.50;82.10;;;;;;5020965;28;20056;-75
2023/02/16 10:23:56;;;;;;;8.32;3.30;;;8.50;81.90;;;;;;5020941;28;20036;-75
2023/02/16 10:26:29;;;;;;;27.52;4.25;;;8.60;83.00;;;;;;5023710;28;20029;-75
2023/02/16 10:29:07;;;;;;;11.23;3.10;;;8.60;82.80;;;;;;5019073;28;20032;-76
2023/02/16 10:31:43;;;;;;;6.55;3.00;;;8.60;82.80;;;;;;5023840;28;20029;-75
2023/02/16 10:34:42;;;;;;;7.43;2.53;;;8.70;82.30;;;;;;5021159;28;20488;-76
2023/02/16 10:37:10;;;;;;;4.50;2.42;;;8.70;81.40;;;;;;5015639;28;20034;-75
2023/02/16 10:39:51;;;;;;;6.90;2.85;;;8.80;81.40;;;;;;5021869;28;20116;-76
2023/02/16 10:42:35;;;;;;;5.85;3.15;;;8.80;81.30;;;;;;5020249;28;20116;-76
2023/02/16 10:45:09;;;;;;;8.50;3.70;;;9.00;81.20;;;;;;5022553;28;20045;-75
2023/02/16 10:47:38;;;;;;;6.18;2.50;;;9.00;80.30;;;;;;5016788;28;20108;-76
2023/02/16 10:50:06;;;;;;;7.97;2.45;;;9.00;80.70;;;;;;5018191;28;20166;-76
2023/02/16 10:52:38;;;;;;;9.40;3.22;;;9.00;80.60;;;;;;5023518;28;20045;-76
2023/02/16 10:55:04;;;;;;;5.93;2.53;;;9.10;80.70;;;;;;5014259;28;21089;-76
2023/02/16 10:57:31;;;;;;;8.13;2.70;;;9.10;80.60;;;;;;5024160;28;20025;-77
2023/02/16 11:00:01;;;;;;;4.78;2.35;;;9.10;79.10;;;;;;5019057;28;20036;-75
2023/02/16 11:02:39;;;;;;;6.82;3.55;;;9.10;79.80;;;;;;5020384;28;20083;-75
2023/02/16 11:05:27;;;;;;;6.07;2.70;;;9.30;80.30;;;;;;5012915;28;20029;-75
2023/02/16 11:08:00;;;;;;;5.53;2.20;;;9.50;79.60;;;;;;5015502;28;20120;-76
2023/02/16 11:10:49;;;;;;;4.95;2.08;;;9.70;79.30;;;;;;5018538;28;20022;-76
2023/02/16 11:13:36;;;;;;;6.53;2.20;;;9.80;78.40;;;;;;5013512;28;20479;-75
2023/02/16 11:16:22;;;;;;;4.97;2.40;;;9.70;78.10;;;;;;5014459;28;20506;-75
2023/02/16 11:18:57;;;;;;;4.40;2.50;;;10.00;78.70;;;;;;5022425;28;20076;-75
2023/02/16 11:21:41;;;;;;;;;;;10.20;78.40;;;;;;5018917;28;20029;-75
2023/02/16 11:24:12;;;;;;;5.28;2.45;;;10.30;78.70;;;;;;5015222;28;20024;-75
2023/02/16 11:26:38;;;;;;;6.30;3.08;;;10.20;77.70;;;;;;5017345;28;20052;-76
2023/02/16 11:29:18;;;;;;;6.68;3.33;;;10.10;77.90;;;;;;5022438;28;20037;-76
2023/02/16 11:31:44;;;;;;;8.60;3.85;;;10.40;78.40;;;;;;5019516;28;20087;-75
2023/02/16 11:34:21;;;;;;;7.03;2.97;;;10.60;79.20;;;;;;5019149;28;20079;-75
2023/02/16 11:36:47;;;;;;;7.05;3.35;;;10.70;78.50;;;;;;5020296;28;20034;-76
2023/02/16 11:39:16;;;;;;;7.07;2.75;;;10.60;79.00;;;;;;5023062;28;20099;-76
2023/02/16 11:41:55;;;;;;;6.57;2.80;;;10.60;79.10;;;;;;5021639;28;20087;-76
2023/02/16 11:44:34;;;;;;;7.90;3.13;;;10.60;77.90;;;;;;5010969;28;20429;-76
2023/02/16 11:47:04;;;;;;;9.55;3.22;;;10.70;78.30;;;;;;5028449;28;20042;-76
2023/02/16 11:49:35;;;;;;;9.05;2.55;;;10.60;77.20;;;;;;5030021;28;20025;-77
2023/02/16 11:52:26;;;;;;;6.05;3.10;;;10.70;77.80;;;;;;5024702;28;20068;-78
2023/02/16 11:54:56;;;;;;;5.82;2.13;;;11.00;78.10;;;;;;5024817;28;20087;-76
2023/02/16 11:57:27;;;;;;;5.97;3.05;;;11.30;77.10;;;;;;5019589;28;20591;-76
2023/02/16 11:59:54;;;;;;;6.05;3.00;;;11.20;76.10;;;;;;5028068;28;20040;-76
2023/02/16 12:02:39;;;;;;;7.43;2.75;;;11.10;76.50;;;;;;5025503;28;20116;-75
2023/02/16 12:05:24;;;;;;;6.60;3.30;;;11.40;76.50;;;;;;5024197;28;20144;-76
2023/02/16 12:07:59;;;;;;;7.60;2.70;;;11.50;75.20;;;;;;5012226;28;20026;-76
2023/02/16 12:10:24;;;;;;;;;;;11.40;75.30;;;;;;5028718;28;20486;-76
2023/02/16 12:12:58;;;;;;;5.78;2.67;;;11.50;75.90;;;;;;5028475;28;19917;-76
2023/02/16 12:15:30;;;;;;;6.22;2.15;;;11.50;74.90;;;;;;5027938;28;20415;-75
2023/02/16 12:18:25;;;;;;;5.50;2.78;;;11.70;75.40;;;;;;5027648;28;20116;-77
2023/02/16 12:21:30;;;;;;;6.07;2.97;;;12.10;74.40;;;;;;5025310;28;20116;-77
2023/02/16 12:24:23;;;;;;;7.28;2.58;;;12.50;74.20;;;;;;5018142;28;20052;-76
2023/02/16 12:27:08;;;;;;;9.30;2.90;;;12.70;73.30;;;;;;5017428;28;20061;-76
2023/02/16 12:29:55;;;;;;;5.78;2.92;;;12.70;73.30;;;;;;5015562;28;20033;-76
2023/02/16 12:32:36;;;;;;;7.65;3.00;;;12.80;74.20;;;;;;5024875;28;20475;-76
2023/02/16 12:35:32;;;;;;;6.90;2.80;;;13.00;74.10;;;;;;5024023;28;20030;-75
2023/02/16 12:38:31;;;;;;;4.20;2.25;;;13.00;73.60;;;;;;5021661;28;20049;-75
2023/02/16 12:41:32;;;;;;;5.22;2.15;;;12.80;73.60;;;;;;5024602;28;20029;-76
2023/02/16 12:44:05;;;;;;;6.25;2.38;;;12.90;73.70;;;;;;5023859;28;20081;-75
2023/02/16 12:46:50;;;;;;;5.30;2.03;;;12.50;72.80;;;;;;5017889;28;20033;-75
2023/02/16 12:49:23;;;;;;;4.90;2.05;;;12.50;73.00;;;;;;5012228;28;20053;-74
2023/02/16 12:52:21;;;;;;;4.75;2.25;;;12.40;72.60;;;;;;5024387;28;20025;-74
2023/02/16 12:54:54;;;;;;;4.63;2.28;;;12.50;73.50;;;;;;5022924;28;20038;-74
2023/02/16 12:57:24;;;;;;;4.40;2.30;;;12.80;73.80;;;;;;5021776;28;20025;-75
2023/02/16 12:59:58;;;;;;;7.50;2.50;;;13.00;74.70;;;;;;5021531;28;20034;-74
2023/02/16 13:02:35;;;;;;;7.40;2.83;;;13.00;74.40;;;;;;5015093;28;20044;-76
2023/02/16 13:05:12;;;;;;;6.65;2.28;;;12.90;74.20;;;;;;5016953;28;20042;-75
2023/02/16 13:07:45;;;;;;;4.60;2.20;;;12.70;74.00;;;;;;5021266;28;20037;-75
2023/02/16 13:10:29;;;;;;;5.87;2.50;;;12.70;75.10;;;;;;5014118;28;20026;-75
2023/02/16 13:13:15;;;;;;;5.88;2.58;;;12.70;73.80;;;;;;5022748;28;20415;-75
2023/02/16 13:15:51;;;;;;;5.50;2.17;;;12.80;74.40;;;;;;5016562;28;20044;-75
2023/02/16 13:18:21;;;;;;;6.75;3.17;;;12.90;74.00;;;;;;5018355;28;20077;-74
2023/02/16 13:20:52;;;;;;;7.60;2.78;;;13.10;73.90;;;;;;5021368;28;20025;-74
2023/02/16 13:23:42;;;;;;;6.05;3.38;;;13.10;73.80;;;;;;5019500;28;20076;-75
2023/02/16 13:26:11;;;;;;;14.55;6.28;;;13.00;73.40;;;;;;5019852;28;20568;-74
2023/02/16 13:29:03;;;;;;;9.40;4.45;;;13.10;72.60;;;;;;5021947;28;20053;-75
2023/02/16 13:31:42;;;;;;;8.82;4.07;;;13.00;72.60;;;;;;5016147;28;20034;-75
2023/02/16 13:34:46;;;;;;;11.25;4.35;;;12.90;74.00;;;;;;5017515;28;20029;-74
2023/02/16 13:37:20;;;;;;;17.85;7.50;;;13.10;73.20;;;;;;5016474;28;20038;-75
2023/02/16 13:39:58;;;;;;;9.18;4.93;;;13.30;73.80;;;;;;5013683;28;20752;-75
2023/02/16 13:42:51;;;;;;;13.30;6.95;;;13.30;73.70;;;;;;5012480;28;20030;-76
2023/02/16 13:45:29;;;;;;;16.77;7.05;;;13.60;74.40;;;;;;5020780;28;20605;-76
2023/02/16 13:47:56;;;;;;;14.27;7.15;;;13.60;73.70;;;;;;5021473;28;20468;-75
2023/02/16 13:50:22;;;;;;;17.67;8.55;;;13.50;73.60;;;;;;5015289;28;20025;-75
2023/02/16 13:52:50;;;;;;;19.70;9.25;;;13.50;73.70;;;;;;5015440;28;20663;-75
2023/02/16 13:55:32;;;;;;;16.45;8.48;;;13.50;73.70;;;;;;5016877;28;20029;-76